| time (UTC) | temp F | wind direction | speed MPH | gust MPH | rain 1hr in | rain 24hr in | rain mn in | humidity % | barometer mb |
| 20260502233046 | 46 | 266 | 8.0 | 0.0 | 0.00 | 0.00 | 0.00 | 39 | 986.0 |
| 20260502231534 | 46 | 266 | 9.0 | 0.0 | 0.00 | 0.00 | 0.00 | 39 | 986.0 |
| 20260502230100 | 47 | 266 | 10.0 | 0.0 | 0.00 | 0.00 | 0.00 | 39 | 986.0 |
| 20260502224534 | 47 | 268 | 11.0 | 0.0 | 0.00 | 0.00 | 0.00 | 38 | 986.3 |
| 20260502223052 | 47 | 269 | 12.0 | 0.0 | 0.00 | 0.00 | 0.00 | 38 | 987.0 |
| 20260502221534 | 48 | 268 | 12.0 | 0.0 | 0.00 | 0.00 | 0.00 | 38 | 987.0 |
| 20260502220059 | 48 | 267 | 12.0 | 0.0 | 0.00 | 0.00 | 0.00 | 38 | 987.0 |
| 20260502214534 | 48 | 268 | 12.0 | 0.0 | 0.00 | 0.00 | 0.00 | 38 | 987.1 |
| 20260502213052 | 48 | 261 | 11.0 | 0.0 | 0.00 | 0.00 | 0.00 | 40 | 986.9 |
| 20260502211534 | 48 | 259 | 11.0 | 0.0 | 0.00 | 0.00 | 0.00 | 40 | 986.8 |
| 20260502204534 | 48 | 259 | 12.0 | 0.0 | 0.00 | 0.00 | 0.00 | 37 | 987.2 |
| 20260502203052 | 48 | 264 | 11.0 | 0.0 | 0.00 | 0.00 | 0.00 | 36 | 987.7 |
| 20260502201534 | 48 | 266 | 11.0 | 0.0 | 0.00 | 0.00 | 0.00 | 36 | 987.7 |
| 20260502200059 | 48 | 269 | 11.0 | 0.0 | 0.00 | 0.00 | 0.00 | 36 | 987.7 |
| 20260502194534 | 47 | 270 | 11.0 | 0.0 | 0.00 | 0.00 | 0.00 | 40 | 987.9 |
| 20260502193047 | 47 | 271 | 11.0 | 0.0 | 0.00 | 0.00 | 0.00 | 40 | 987.9 |
| 20260502191534 | 47 | 274 | 12.0 | 0.0 | 0.00 | 0.00 | 0.00 | 40 | 987.9 |
| 20260502190100 | 47 | 271 | 11.0 | 0.0 | 0.00 | 0.00 | 0.00 | 40 | 987.9 |
| 20260502184534 | 46 | 272 | 11.0 | 0.0 | 0.00 | 0.00 | 0.00 | 44 | 988.0 |
| 20260502183053 | 46 | 276 | 10.0 | 0.0 | 0.00 | 0.00 | 0.00 | 40 | 988.0 |
| 20260502181533 | 47 | 285 | 9.0 | 0.0 | 0.00 | 0.00 | 0.00 | 40 | 988.0 |
| 20260502180104 | 47 | 286 | 9.0 | 0.0 | 0.00 | 0.00 | 0.00 | 40 | 988.0 |
| 20260502163054 | 45 | 279 | 9.0 | 0.0 | 0.00 | 0.00 | 0.00 | 41 | 987.4 |
| 20260502161533 | 44 | 276 | 8.0 | 0.0 | 0.00 | 0.00 | 0.00 | 41 | 987.4 |
| 20260502151534 | 42 | 286 | 7.0 | 0.0 | 0.00 | 0.00 | 0.00 | 49 | 987.6 |
| 20260502150105 | 42 | 289 | 7.0 | 0.0 | 0.00 | 0.00 | 0.00 | 49 | 987.6 |
| 20260502140106 | 39 | 318 | 6.0 | 0.0 | 0.00 | 0.00 | 0.00 | 56 | 988.3 |
| 20260502123051 | 35 | 329 | 4.0 | 0.0 | 0.00 | 0.00 | 0.00 | 79 | 988.2 |
| 20260502121534 | 34 | 330 | 4.0 | 0.0 | 0.00 | 0.00 | 0.00 | 79 | 988.2 |
| 20260502120108 | 33 | 326 | 5.0 | 0.0 | 0.00 | 0.00 | 0.00 | 79 | 988.2 |
| 20260502114534 | 32 | 322 | 5.0 | 0.0 | 0.00 | 0.00 | 0.00 | 85 | 988.0 |
| 20260502113056 | 32 | 317 | 3.0 | 0.0 | 0.00 | 0.00 | 0.00 | 86 | 987.8 |
| 20260502111534 | 31 | 318 | 3.0 | 0.0 | 0.00 | 0.00 | 0.00 | 86 | 987.8 |
| 20260502104533 | 31 | 308 | 3.0 | 0.0 | 0.00 | 0.00 | 0.00 | 85 | 987.6 |
| 20260502103052 | 31 | 292 | 3.0 | 0.0 | 0.00 | 0.00 | 0.00 | 88 | 987.9 |
| 20260502101534 | 31 | 293 | 3.0 | 0.0 | 0.00 | 0.00 | 0.00 | 88 | 987.9 |
| 20260502091533 | 31 | 302 | 3.0 | 0.0 | 0.00 | 0.00 | 0.00 | 88 | 987.4 |
| 20260502080103 | 31 | 317 | 4.0 | 0.0 | 0.00 | 0.00 | 0.00 | 82 | 987.2 |
| 20260502071533 | 32 | 321 | 4.0 | 0.0 | 0.00 | 0.00 | 0.00 | 74 | 986.7 |
| 20260502070100 | 32 | 322 | 5.0 | 0.0 | 0.00 | 0.00 | 0.00 | 74 | 986.7 |
| 20260502064534 | 32 | 315 | 5.0 | 0.0 | 0.00 | 0.00 | 0.00 | 72 | 987.8 |
| 20260502063053 | 32 | 311 | 4.0 | 0.0 | 0.00 | 0.00 | 0.00 | 71 | 987.7 |
| 20260502061533 | 32 | 313 | 4.0 | 0.0 | 0.00 | 0.00 | 0.00 | 71 | 987.6 |
| 20260502060111 | 33 | 317 | 5.0 | 0.0 | 0.00 | 0.00 | 0.00 | 71 | 987.6 |
| 20260502054534 | 33 | 320 | 5.0 | 0.0 | 0.00 | 0.00 | 0.00 | 71 | 986.9 |
| 20260502053052 | 33 | 319 | 5.0 | 0.0 | 0.00 | 0.00 | 0.00 | 73 | 987.3 |
| 20260502051533 | 33 | 320 | 5.0 | 0.0 | 0.00 | 0.00 | 0.00 | 73 | 987.3 |
| 20260502044534 | 34 | 322 | 6.0 | 0.0 | 0.00 | 0.00 | 0.00 | 70 | 986.8 |
| 20260502043051 | 34 | 322 | 5.0 | 0.0 | 0.00 | 0.00 | 0.00 | 73 | 987.0 |
| 20260502041533 | 34 | 325 | 5.0 | 0.0 | 0.00 | 0.00 | 0.00 | 73 | 987.0 |
| 20260502034533 | 34 | 321 | 6.0 | 0.0 | 0.00 | 0.00 | 0.00 | 61 | 986.6 |
| 20260502033053 | 35 | 340 | 5.0 | 0.0 | 0.00 | 0.00 | 0.00 | 64 | 986.0 |
| 20260502031533 | 35 | 342 | 6.0 | 0.0 | 0.00 | 0.00 | 0.00 | 64 | 986.0 |
| 20260502030101 | 35 | 331 | 8.0 | 0.0 | 0.00 | 0.00 | 0.00 | 64 | 986.0 |
| 20260502024533 | 36 | 317 | 8.0 | 0.0 | 0.00 | 0.00 | 0.00 | 59 | 985.5 |
| 20260502023051 | 37 | 315 | 8.0 | 0.0 | 0.00 | 0.00 | 0.00 | 64 | 986.5 |
| 20260502021533 | 37 | 310 | 8.0 | 0.0 | 0.00 | 0.00 | 0.00 | 64 | 986.5 |
| 20260502020057 | 37 | 306 | 8.0 | 0.0 | 0.00 | 0.00 | 0.00 | 64 | 986.5 |
| 20260502014533 | 37 | 299 | 8.0 | 0.0 | 0.00 | 0.00 | 0.00 | 63 | 986.4 |
| 20260502013049 | 38 | 289 | 7.0 | 0.0 | 0.00 | 0.00 | 0.00 | 63 | 986.4 |
| 20260502011532 | 39 | 296 | 6.0 | 0.0 | 0.00 | 0.00 | 0.00 | 63 | 986.5 |
| 20260502010054 | 39 | 297 | 6.0 | 0.0 | 0.00 | 0.00 | 0.00 | 63 | 986.5 |
| 20260502004532 | 40 | 302 | 7.0 | 0.0 | 0.00 | 0.00 | 0.00 | 55 | 986.8 |
| 20260502003050 | 40 | 318 | 8.0 | 0.0 | 0.00 | 0.00 | 0.00 | 57 | 987.4 |
| 20260502001532 | 41 | 308 | 9.0 | 0.0 | 0.00 | 0.00 | 0.00 | 57 | 987.4 |
| 20260502000106 | 41 | 306 | 9.0 | 0.0 | 0.00 | 0.00 | 0.00 | 57 | 987.4 |
| 20260501234533 | 41 | 302 | 9.0 | 0.0 | 0.00 | 0.00 | 0.00 | 53 | 985.9 |